Time;durP1;ratioP1;P1;durP2;ratioP2;P2;SDS_P1;SDS_P2;PMS_P1;PMS_P2;Temp;Humidity;BMP_temperature;BMP_pressure;BME280_temperature;BME280_humidity;BME280_pressure;Samples;Min_cycle;Max_cycle;Signal;HPM_P1;HPM_P2
2022/11/18 00:01:43;;;;;;;4.28;1.70;;;;;;;6.82;100.00;99370.19;4951718;28;20023;-67
2022/11/18 00:04:09;;;;;;;5.82;1.70;;;;;;;6.82;100.00;99370.19;4950374;28;20123;-67
2022/11/18 00:06:34;;;;;;;4.95;2.10;;;;;;;6.80;100.00;99374.47;4950367;28;20031;-67
2022/11/18 00:09:00;;;;;;;4.88;1.27;;;;;;;6.79;100.00;99372.72;4951267;28;20027;-67
2022/11/18 00:14:22;;;;;;;5.20;1.90;;;;;;;6.77;100.00;99374.38;4950467;28;20082;-66
2022/11/18 00:16:49;;;;;;;8.27;2.13;;;;;;;6.77;100.00;99379.53;4951047;28;20039;-66
2022/11/18 00:19:18;;;;;;;5.68;1.77;;;;;;;6.77;100.00;99382.09;4953922;28;20019;-66
2022/11/18 00:21:43;;;;;;;3.92;1.83;;;;;;;6.77;100.00;99377.81;4958996;28;20042;-67
2022/11/18 00:24:09;;;;;;;4.93;1.83;;;;;;;6.76;100.00;99380.38;4949557;28;20035;-66
2022/11/18 00:26:37;;;;;;;4.40;2.00;;;;;;;6.75;100.00;99382.06;4950476;28;20107;-66
2022/11/18 00:29:05;;;;;;;7.53;2.20;;;;;;;6.77;100.00;99384.66;4949549;28;20031;-67
2022/11/18 00:31:30;;;;;;;5.47;1.60;;;;;;;6.76;100.00;99394.13;4961443;28;20037;-66
2022/11/18 00:33:59;;;;;;;5.20;1.50;;;;;;;6.77;100.00;99387.25;4964280;28;20379;-67
2022/11/18 00:36:24;;;;;;;3.03;1.67;;;;;;;6.76;100.00;99394.13;4950525;28;20076;-66
2022/11/18 00:38:49;;;;;;;3.92;1.50;;;;;;;6.76;100.00;99398.41;4974766;28;20037;-67
2022/11/18 00:41:14;;;;;;;3.75;1.80;;;;;;;6.78;100.00;99401.88;4959338;28;20376;-66
2022/11/18 00:43:40;;;;;;;5.13;1.67;;;;;;;6.79;100.00;99399.34;4952818;28;20094;-66
2022/11/18 00:46:08;;;;;;;5.20;2.05;;;;;;;6.82;100.00;99413.97;4950765;28;20114;-67
2022/11/18 00:48:34;;;;;;;4.32;1.73;;;;;;;6.84;100.00;99407.16;4951952;28;20033;-66
2022/11/18 00:51:08;;;;;;;4.03;1.50;;;;;;;6.85;100.00;99414.91;4970074;28;20368;-67
2022/11/18 00:53:33;;;;;;;3.20;1.65;;;;;;;6.86;100.00;99418.38;4951791;28;20035;-66
2022/11/18 00:55:59;;;;;;;3.17;1.77;;;;;;;6.88;100.00;99414.13;4949518;28;20486;-66
2022/11/18 00:58:24;;;;;;;2.72;1.77;;;;;;;6.88;100.00;99418.41;4952740;28;20027;-66
2022/11/18 01:00:51;;;;;;;2.85;1.30;;;;;;;6.88;100.00;99421.00;4949602;28;20110;-66
2022/11/18 01:03:17;;;;;;;6.65;2.28;;;;;;;6.86;100.00;99418.38;4952534;28;20035;-66
2022/11/18 01:05:43;;;;;;;6.63;2.15;;;;;;;6.84;100.00;99427.75;4950369;28;20114;-66
2022/11/18 01:08:10;;;;;;;6.97;1.80;;;;;;;6.81;100.00;99433.72;4948670;28;20518;-66
2022/11/18 01:10:36;;;;;;;4.70;1.60;;;;;;;6.81;100.00;99441.44;4950616;28;20031;-66
2022/11/18 01:13:18;;;;;;;4.93;1.75;;;;;;;6.78;100.00;99445.66;4949082;28;20043;-67
2022/11/18 01:15:44;;;;;;;;;;;;;;;6.76;100.00;99442.16;4950033;28;20481;-66
2022/11/18 01:18:10;;;;;;;5.10;1.90;;;;;;;6.73;100.00;99451.56;4949445;28;19936;-67
2022/11/18 01:20:35;;;;;;;3.40;1.65;;;;;;;6.72;100.00;99446.38;4949367;28;20027;-66
2022/11/18 01:23:01;;;;;;;3.92;2.15;;;;;;;6.70;100.00;99456.63;4961077;28;20070;-66
2022/11/18 01:25:27;;;;;;;3.83;1.33;;;;;;;6.70;100.00;99448.03;4950067;28;20030;-66
2022/11/18 01:27:52;;;;;;;4.38;1.75;;;;;;;6.70;100.00;99451.47;4955708;28;20031;-67
2022/11/18 01:30:18;;;;;;;4.25;1.92;;;;;;;6.68;100.00;99458.28;4965489;28;20034;-67
2022/11/18 01:32:43;;;;;;;7.03;1.83;;;;;;;6.69;100.00;99460.00;4948888;28;20034;-66
2022/11/18 01:35:09;;;;;;;3.95;1.50;;;;;;;6.71;100.00;99468.66;4949636;28;20118;-66
2022/11/18 01:37:35;;;;;;;4.70;1.58;;;;;;;6.73;100.00;99472.16;4959846;28;20026;-67
2022/11/18 01:40:00;;;;;;;3.17;1.55;;;;;;;6.73;100.00;99464.41;4959902;28;20074;-67
2022/11/18 01:42:26;;;;;;;7.15;2.00;;;;;;;6.76;100.00;99475.63;4949151;28;20038;-67
2022/11/18 01:44:59;;;;;;;6.22;1.70;;;;;;;6.77;100.00;99482.50;4949189;28;20426;-66
2022/11/18 01:47:31;;;;;;;4.78;1.50;;;;;;;6.78;100.00;99487.69;4948988;28;20059;-66
2022/11/18 01:49:58;;;;;;;4.22;1.60;;;;;;;6.80;100.00;99485.19;4949471;28;20118;-67
2022/11/18 01:52:24;;;;;;;5.43;1.90;;;;;;;6.81;100.00;99490.38;4961300;28;20526;-66
2022/11/18 01:54:54;;;;;;;6.25;1.88;;;;;;;6.82;100.00;99486.97;4950275;28;20089;-66
2022/11/18 01:57:21;;;;;;;2.75;1.63;;;;;;;6.84;100.00;99492.16;4949079;28;20082;-66
2022/11/18 01:59:52;;;;;;;7.85;2.35;;;;;;;6.84;100.00;99494.72;4948431;28;20027;-66
2022/11/18 02:02:19;;;;;;;4.68;1.65;;;;;;;6.83;100.00;99493.88;4948699;28;20033;-67
2022/11/18 02:04:48;;;;;;;3.42;1.60;;;;;;;6.85;100.00;99493.91;4948767;28;20031;-66
2022/11/18 02:07:14;;;;;;;4.25;1.67;;;;;;;6.85;100.00;99496.47;4948349;28;20031;-66
2022/11/18 02:09:41;;;;;;;4.07;1.38;;;;;;;6.86;100.00;99498.22;4958359;28;20039;-67
2022/11/18 02:12:07;;;;;;;4.20;1.90;;;;;;;6.87;100.00;99499.97;4962934;28;20395;-66
2022/11/18 02:14:36;;;;;;;2.25;1.70;;;;;;;6.88;100.00;99505.97;4948905;28;20027;-67
2022/11/18 02:17:33;;;;;;;3.63;1.80;;;;;;;6.88;100.00;99499.13;4953131;28;20023;-66
2022/11/18 02:20:07;;;;;;;3.40;1.85;;;;;;;6.92;100.00;99502.66;4949230;28;20031;-67
2022/11/18 02:22:47;;;;;;;4.53;1.60;;;;;;;6.94;100.00;99504.41;4948339;28;20086;-66
2022/11/18 02:25:41;;;;;;;2.47;1.73;;;;;;;6.97;100.00;99501.94;4949726;28;20043;-66
2022/11/18 02:28:23;;;;;;;5.15;1.58;;;;;;;7.02;100.00;99509.78;4958744;28;20039;-66
2022/11/18 02:31:01;;;;;;;3.33;1.35;;;;;;;7.05;100.00;99519.31;4953622;28;20476;-66
2022/11/18 02:34:06;;;;;;;5.75;2.70;;;;;;;7.09;100.00;99521.09;4952244;28;20027;-66
2022/11/18 02:36:50;;;;;;;5.18;1.80;;;;;;;7.12;100.00;99520.31;4953864;28;20499;-66
2022/11/18 02:39:21;;;;;;;4.65;1.42;;;;;;;7.15;100.00;99526.41;4952246;28;20514;-66
2022/11/18 02:41:50;;;;;;;5.32;1.95;;;;;;;7.16;100.00;99515.25;4952038;28;20035;-66
2022/11/18 02:44:20;;;;;;;4.35;1.73;;;;;;;7.19;100.00;99528.25;4953469;28;20030;-66
2022/11/18 02:46:51;;;;;;;5.68;1.55;;;;;;;7.20;100.00;99532.56;4954338;28;20404;-66
2022/11/18 02:49:21;;;;;;;5.93;1.65;;;;;;;7.23;100.00;99538.63;4952296;28;20027;-66
2022/11/18 02:51:48;;;;;;;3.77;1.63;;;;;;;7.26;100.00;99533.53;4952377;28;20438;-66
2022/11/18 02:54:15;;;;;;;6.30;1.52;;;;;;;7.28;100.00;99542.19;4951506;28;20382;-66
2022/11/18 02:56:41;;;;;;;4.10;1.73;;;;;;;7.29;100.00;99534.47;4951717;28;20368;-66
2022/11/18 02:59:06;;;;;;;5.95;1.88;;;;;;;7.31;100.00;99535.41;4951402;28;20027;-66
2022/11/18 03:01:34;;;;;;;4.68;1.65;;;;;;;7.32;100.00;99537.13;4976682;28;20112;-66
2022/11/18 03:04:00;;;;;;;1.67;1.30;;;;;;;7.33;100.00;99535.44;4958474;28;20019;-66
2022/11/18 03:06:40;;;;;;;4.55;1.63;;;;;;;7.35;100.00;99540.63;4956841;28;20050;-66
2022/11/18 03:09:41;;;;;;;3.55;1.50;;;;;;;7.36;100.00;99547.53;4951499;28;20023;-66
2022/11/18 03:12:31;;;;;;;3.83;1.53;;;;;;;7.37;100.00;99550.16;4966164;28;20807;-66
2022/11/18 03:15:34;;;;;;;5.57;1.80;;;;;;;7.38;100.00;99559.59;4954720;28;20035;-66
2022/11/18 03:18:02;;;;;;;3.75;1.67;;;;;;;7.39;100.00;99553.63;4951656;28;20581;-66
2022/11/18 03:20:34;;;;;;;4.43;1.60;;;;;;;7.41;100.00;99551.94;4951542;28;20015;-66
2022/11/18 03:23:27;;;;;;;4.38;1.65;;;;;;;7.42;100.00;99560.56;4958359;28;20038;-66
2022/11/18 03:26:19;;;;;;;4.13;1.63;;;;;;;7.43;100.00;99567.44;4952152;28;20085;-66
2022/11/18 03:28:47;;;;;;;8.68;2.53;;;;;;;7.42;100.00;99564.00;4953850;28;20082;-66
2022/11/18 03:31:30;;;;;;;4.50;1.85;;;;;;;7.43;100.00;99578.63;4952493;28;20023;-66
2022/11/18 03:34:00;;;;;;;4.97;1.77;;;;;;;7.42;100.00;99576.91;4950519;28;20023;-66
2022/11/18 03:36:32;;;;;;;5.35;2.10;;;;;;;7.42;100.00;99582.06;4951210;28;20547;-66
2022/11/18 03:39:00;;;;;;;4.93;2.00;;;;;;;7.42;100.00;99578.59;4951015;28;20019;-66
2022/11/18 03:41:28;;;;;;;6.35;1.73;;;;;;;7.42;100.00;99583.75;4965444;28;20033;-66
2022/11/18 03:44:05;;;;;;;4.97;2.10;;;;;;;7.41;100.00;99584.59;4961551;28;20054;-66
2022/11/18 03:46:43;;;;;;;5.95;2.25;;;;;;;7.39;100.00;99584.56;4958441;28;20149;-66
2022/11/18 03:49:15;;;;;;;4.28;1.95;;;;;;;7.39;100.00;99587.16;4953318;28;20015;-66
2022/11/18 03:51:46;;;;;;;4.95;1.98;;;;;;;7.39;100.00;99599.16;4951951;28;20031;-66
2022/11/18 03:54:18;;;;;;;3.42;1.70;;;;;;;7.38;100.00;99600.84;4950660;28;20034;-66
2022/11/18 03:57:08;;;;;;;5.25;2.10;;;;;;;7.37;100.00;99604.28;4964707;28;20539;-66
2022/11/18 03:59:42;;;;;;;3.63;1.98;;;;;;;7.37;100.00;99604.28;4949809;28;20530;-66
2022/11/18 04:02:14;;;;;;;7.05;2.47;;;;;;;7.35;100.00;99605.06;4950810;28;20569;-66
2022/11/18 04:04:40;;;;;;;5.13;2.45;;;;;;;7.36;100.00;99611.97;4953007;28;20055;-66
2022/11/18 04:07:32;;;;;;;3.45;2.08;;;;;;;7.35;100.00;99615.34;4961877;28;20030;-66
2022/11/18 04:10:05;;;;;;;8.40;2.58;;;;;;;7.34;100.00;99611.91;4950291;28;20071;-66
2022/11/18 04:12:34;;;;;;;4.65;2.67;;;;;;;7.35;100.00;99625.66;4950103;28;20038;-66
2022/11/18 04:14:59;;;;;;;5.90;2.60;;;;;;;7.35;100.00;99625.66;4956192;28;20364;-66
2022/11/18 04:17:27;;;;;;;6.88;2.42;;;;;;;7.34;100.00;99629.94;4968216;28;20031;-66
2022/11/18 04:19:53;;;;;;;7.28;2.60;;;;;;;7.32;100.00;99631.63;4961487;28;20027;-66
2022/11/18 04:22:19;;;;;;;4.70;2.65;;;;;;;7.33;100.00;99633.38;4950009;28;20027;-66
2022/11/18 04:24:44;;;;;;;5.93;2.67;;;;;;;7.33;100.00;99633.38;4962616;28;20019;-66
2022/11/18 04:27:10;;;;;;;4.82;2.45;;;;;;;7.32;100.00;99641.94;4949959;28;20026;-66
2022/11/18 04:29:36;;;;;;;8.27;2.63;;;;;;;7.31;100.00;99640.19;4949547;28;20457;-66
2022/11/18 04:32:02;;;;;;;5.38;2.50;;;;;;;7.29;100.00;99644.41;4966383;28;20482;-66
2022/11/18 04:34:27;;;;;;;7.15;3.17;;;;;;;7.27;100.00;99648.66;4958406;28;20078;-66
2022/11/18 04:36:53;;;;;;;4.53;2.67;;;;;;;7.24;100.00;99646.88;4950014;28;20027;-66
2022/11/18 04:39:19;;;;;;;3.67;2.65;;;;;;;7.19;100.00;99646.78;4953630;28;20027;-66
2022/11/18 04:41:56;;;;;;;5.15;2.83;;;;;;;7.17;100.00;99652.69;4949548;28;20062;-66
2022/11/18 04:44:27;;;;;;;7.63;2.97;;;;;;;7.14;100.00;99661.22;4950074;28;20023;-67
2022/11/18 04:46:53;;;;;;;4.63;2.45;;;;;;;7.10;100.00;99659.41;4950677;28;20051;-66
2022/11/18 04:49:19;;;;;;;7.35;2.75;;;;;;;7.09;100.00;99670.53;4949486;28;20034;-66
2022/11/18 04:51:45;;;;;;;6.75;2.60;;;;;;;7.03;100.00;99666.09;4949397;28;20031;-66
2022/11/18 04:54:12;;;;;;;5.20;2.38;;;;;;;7.01;100.00;99672.03;4951076;28;20379;-66
2022/11/18 04:56:37;;;;;;;7.45;3.33;;;;;;;6.97;100.00;99664.22;4957672;28;20031;-66
2022/11/18 04:59:04;;;;;;;6.15;2.97;;;;;;;6.94;100.00;99673.56;4952548;28;20037;-66
2022/11/18 05:01:30;;;;;;;4.82;2.97;;;;;;;6.93;100.00;99671.78;4957681;28;20347;-66
2022/11/18 05:03:55;;;;;;;6.38;2.83;;;;;;;6.91;100.00;99671.75;4954916;28;20162;-66
2022/11/18 05:06:21;;;;;;;7.57;2.72;;;;;;;6.86;100.00;99678.47;4953662;28;20019;-66
2022/11/18 05:08:46;;;;;;;6.00;3.28;;;;;;;6.84;100.00;99680.13;4952879;28;20034;-66
2022/11/18 05:13:56;;;;;;;7.05;3.53;;;;;;;6.77;100.00;99683.34;4950212;28;20086;-66
2022/11/18 05:16:21;;;;;;;4.97;2.72;;;;;;;6.73;100.00;99693.59;4949576;28;20035;-66
2022/11/18 05:18:46;;;;;;;6.05;2.97;;;;;;;6.70;100.00;99693.50;4947235;28;20431;-66
2022/11/18 05:21:12;;;;;;;4.28;2.67;;;;;;;6.67;100.00;99697.69;4949557;28;20039;-66
2022/11/18 05:23:37;;;;;;;6.07;3.08;;;;;;;6.64;100.00;99698.44;4949507;28;20423;-66
2022/11/18 05:26:03;;;;;;;9.75;2.85;;;;;;;6.62;100.00;99700.09;4949551;28;20039;-66
2022/11/18 05:28:29;;;;;;;4.75;3.10;;;;;;;6.59;100.00;99700.03;4949553;28;20506;-66
2022/11/18 05:30:54;;;;;;;7.00;3.20;;;;;;;6.57;100.00;99704.25;4950383;28;20035;-66
2022/11/18 05:33:19;;;;;;;7.43;3.85;;;;;;;6.54;100.00;99702.47;4949321;28;20278;-66
2022/11/18 05:35:45;;;;;;;4.30;2.95;;;;;;;6.53;100.00;99707.56;4957903;28;20562;-66
2022/11/18 05:38:10;;;;;;;5.72;3.42;;;;;;;6.50;100.00;99705.75;4948931;28;20050;-66
2022/11/18 05:40:35;;;;;;;6.50;3.58;;;;;;;6.50;100.00;99716.06;4948975;28;20036;-66
2022/11/18 05:43:12;;;;;;;7.95;3.45;;;;;;;6.48;100.00;99721.16;4949312;28;20479;-66
2022/11/18 05:45:39;;;;;;;4.53;3.00;;;;;;;6.46;100.00;99719.34;4962119;28;20089;-66
2022/11/18 05:48:05;;;;;;;7.53;3.38;;;;;;;6.44;100.00;99721.88;4948879;28;20047;-66
2022/11/18 05:50:33;;;;;;;4.60;2.92;;;;;;;6.43;100.00;99734.72;4949491;28;20035;-66
2022/11/18 05:52:59;;;;;;;7.60;3.30;;;;;;;6.43;100.00;99729.56;4965333;28;20261;-66
2022/11/18 05:55:30;;;;;;;6.40;3.17;;;;;;;6.41;100.00;99726.94;4952361;28;20462;-66
2022/11/18 05:57:55;;;;;;;4.35;3.10;;;;;;;6.40;100.00;99735.50;4958967;28;20485;-66
2022/11/18 06:00:22;;;;;;;6.80;3.28;;;;;;;6.39;100.00;99738.88;4964985;28;20160;-66
2022/11/18 06:02:50;;;;;;;6.70;3.50;;;;;;;6.37;100.00;99735.38;4952109;28;20134;-66
2022/11/18 06:05:17;;;;;;;4.28;3.50;;;;;;;6.36;100.00;99742.25;4952886;28;20023;-66
2022/11/18 06:07:44;;;;;;;6.22;3.08;;;;;;;6.37;100.00;99743.09;4951712;28;20629;-66
2022/11/18 06:10:15;;;;;;;5.93;3.15;;;;;;;6.35;100.00;99743.06;4952472;28;20043;-66
2022/11/18 06:12:43;;;;;;;5.70;3.55;;;;;;;6.32;100.00;99757.53;4954761;28;20090;-66
2022/11/18 06:15:16;;;;;;;7.93;3.33;;;;;;;6.32;100.00;99753.28;4955675;28;20499;-66
2022/11/18 06:17:51;;;;;;;6.32;3.53;;;;;;;6.30;100.00;99754.03;4954950;28;20113;-66
2022/11/18 06:20:19;;;;;;;5.93;3.42;;;;;;;6.30;100.00;99759.19;4960708;28;20027;-66
2022/11/18 06:22:46;;;;;;;7.03;3.47;;;;;;;6.29;100.00;99772.88;4953924;28;20038;-66
2022/11/18 06:25:12;;;;;;;5.93;3.65;;;;;;;6.26;100.00;99772.78;4955561;28;20019;-66
2022/11/18 06:27:37;;;;;;;5.95;3.78;;;;;;;6.24;100.00;99781.31;4966850;28;20415;-66
2022/11/18 06:30:03;;;;;;;7.13;3.78;;;;;;;6.21;100.00;99780.34;4951437;28;20201;-66
2022/11/18 06:32:29;;;;;;;7.85;4.00;;;;;;;6.21;100.00;99790.63;4951581;28;20419;-66
2022/11/18 06:34:54;;;;;;;8.55;4.55;;;;;;;6.20;100.00;99788.88;4951881;28;20043;-66
2022/11/18 06:37:19;;;;;;;7.10;4.53;;;;;;;6.19;100.00;99792.31;4951970;28;20037;-66
2022/11/18 06:39:45;;;;;;;6.45;4.07;;;;;;;6.16;100.00;99790.50;4951401;28;20538;-66
2022/11/18 06:43:37;;;;;;;6.78;4.07;;;;;;;6.16;100.00;99803.34;4957281;28;20026;-66
2022/11/18 06:44:56;;;;;;;7.15;4.80;;;;;;;6.13;100.00;99798.97;4951910;28;20430;-66
2022/11/18 06:47:22;;;;;;;7.80;4.28;;;;;;;6.11;100.00;99802.31;4952030;28;20143;-66
2022/11/18 06:49:47;;;;;;;7.90;4.40;;;;;;;6.10;100.00;99804.00;4950365;28;20035;-66
2022/11/18 06:52:12;;;;;;;8.65;4.40;;;;;;;6.11;100.00;99810.94;4948915;28;20467;-66
2022/11/18 06:54:37;;;;;;;6.85;4.57;;;;;;;6.11;100.00;99799.75;4950049;28;20046;-66
2022/11/18 06:57:03;;;;;;;7.80;4.28;;;;;;;6.10;100.00;99810.84;4956293;28;20023;-66
2022/11/18 06:59:28;;;;;;;10.43;4.72;;;;;;;6.08;100.00;99825.38;4951119;28;20545;-66
2022/11/18 07:01:53;;;;;;;8.10;4.35;;;;;;;6.08;100.00;99825.38;4949326;28;20303;-66
2022/11/18 07:04:19;;;;;;;7.72;4.13;;;;;;;6.08;100.00;99827.94;4952520;28;20418;-66
2022/11/18 07:06:44;;;;;;;8.85;4.05;;;;;;;6.08;100.00;99830.53;4963229;28;20033;-66
2022/11/18 07:09:10;;;;;;;9.10;4.25;;;;;;;6.08;100.00;99838.25;4954574;28;20471;-66
2022/11/18 07:11:37;;;;;;;7.70;4.25;;;;;;;6.09;100.00;99838.28;4950948;28;20114;-66
2022/11/18 07:14:02;;;;;;;7.18;4.72;;;;;;;6.10;100.00;99840.03;4952072;28;20027;-65
2022/11/18 07:16:28;;;;;;;6.30;4.10;;;;;;;6.11;100.00;99851.19;4950639;28;20050;-66
2022/11/18 07:18:54;;;;;;;12.10;4.22;;;;;;;6.11;100.00;99846.06;4952468;28;20565;-66
2022/11/18 07:21:22;;;;;;;7.22;4.03;;;;;;;6.12;100.00;99852.94;4954775;28;20031;-66
2022/11/18 07:23:48;;;;;;;6.25;4.13;;;;;;;6.11;100.00;99858.91;4954533;28;20024;-66
2022/11/18 07:26:14;;;;;;;5.85;3.65;;;;;;;6.11;100.00;99852.09;4950362;28;20032;-66
2022/11/18 07:28:39;;;;;;;9.45;3.60;;;;;;;6.11;100.00;99856.34;4953503;28;20113;-66
2022/11/18 07:31:14;;;;;;;9.02;3.83;;;;;;;6.12;100.00;99865.81;4950730;28;20530;-66
2022/11/18 07:33:41;;;;;;;6.13;3.50;;;;;;;6.11;100.00;99869.22;4954457;28;20055;-66
2022/11/18 07:36:12;;;;;;;9.00;3.90;;;;;;;6.10;100.00;99872.59;4950906;28;20106;-66
2022/11/18 07:38:37;;;;;;;5.68;3.42;;;;;;;6.09;100.00;99871.72;4950135;28;20031;-66
2022/11/18 07:41:08;;;;;;;7.18;4.18;;;;;;;6.11;100.00;99876.94;4952693;28;20039;-66
2022/11/18 07:43:34;;;;;;;7.05;3.95;;;;;;;6.12;100.00;99888.94;4950140;28;20049;-66
2022/11/18 07:46:21;;;;;;;5.75;3.78;;;;;;;6.11;100.00;99882.97;4949917;28;20511;-66
2022/11/18 07:48:50;;;;;;;5.72;3.78;;;;;;;6.13;100.00;99888.16;4951545;28;20054;-66
2022/11/18 07:51:18;;;;;;;4.82;3.55;;;;;;;6.15;100.00;99894.22;4950660;28;20110;-66
2022/11/18 07:53:43;;;;;;;6.22;4.03;;;;;;;6.13;100.00;99890.72;4953193;28;20451;-66
2022/11/18 07:56:10;;;;;;;6.50;4.18;;;;;;;6.12;100.00;99889.84;4957203;28;20067;-66
2022/11/18 07:58:36;;;;;;;4.82;3.88;;;;;;;6.12;100.00;99899.25;4949993;28;20034;-66
2022/11/18 08:01:15;;;;;;;5.60;4.88;;;;;;;6.13;100.00;99906.16;4969558;28;20041;-66
2022/11/18 08:03:40;;;;;;;6.78;4.43;;;;;;;6.15;100.00;99904.53;4949804;28;20031;-66
2022/11/18 08:06:07;;;;;;;6.00;4.03;;;;;;;6.17;100.00;99908.00;4959599;28;20034;-66
2022/11/18 08:08:33;;;;;;;5.53;3.85;;;;;;;6.19;100.00;99911.50;4949281;28;20035;-66
2022/11/18 08:11:02;;;;;;;6.78;4.00;;;;;;;6.20;100.00;99908.13;4951359;28;20499;-66
2022/11/18 08:13:28;;;;;;;7.22;4.30;;;;;;;6.24;100.00;99912.53;4948552;28;20031;-66
2022/11/18 08:15:54;;;;;;;6.53;3.92;;;;;;;6.28;100.00;99912.66;4948586;28;20027;-66
2022/11/18 08:18:20;;;;;;;9.02;3.78;;;;;;;6.31;100.00;99920.47;4949335;28;20094;-66
2022/11/18 08:20:46;;;;;;;6.20;4.20;;;;;;;6.34;100.00;99926.63;4954009;28;20038;-65
2022/11/18 08:23:13;;;;;;;7.15;3.88;;;;;;;6.36;100.00;99932.69;4948516;28;20027;-66
2022/11/18 08:25:39;;;;;;;4.90;4.07;;;;;;;6.40;100.00;99936.25;4948382;28;20140;-66
2022/11/18 08:28:05;;;;;;;6.15;4.00;;;;;;;6.40;100.00;99936.25;4948781;28;20027;-66
2022/11/18 08:30:32;;;;;;;5.40;3.72;;;;;;;6.42;100.00;99939.72;4948405;28;20031;-66
2022/11/18 08:32:57;;;;;;;6.53;3.67;;;;;;;6.43;100.00;99945.75;4951272;28;20027;-66
2022/11/18 08:35:25;;;;;;;5.38;3.78;;;;;;;6.41;100.00;99943.13;4955479;28;20022;-66
2022/11/18 08:37:50;;;;;;;5.90;3.65;;;;;;;6.40;100.00;99949.13;4952539;28;20042;-66
2022/11/18 08:40:16;;;;;;;7.47;4.55;;;;;;;6.41;100.00;99949.97;4950098;28;20019;-66
2022/11/18 08:42:41;;;;;;;8.85;3.85;;;;;;;6.42;100.00;99947.44;4949519;28;20026;-66
2022/11/18 08:45:09;;;;;;;6.88;3.42;;;;;;;6.45;100.00;99951.84;4954709;28;20023;-66
2022/11/18 08:47:35;;;;;;;7.25;3.60;;;;;;;6.48;100.00;99950.25;4951324;28;20443;-66
2022/11/18 08:50:02;;;;;;;8.25;4.03;;;;;;;6.52;100.00;99955.50;4949014;28;20092;-65
2022/11/18 08:52:28;;;;;;;9.63;4.03;;;;;;;6.55;100.00;99950.47;4950604;28;20065;-66
2022/11/18 08:54:53;;;;;;;8.10;4.18;;;;;;;6.56;100.00;99947.94;4953810;28;20023;-66
2022/11/18 08:57:18;;;;;;;6.47;3.88;;;;;;;6.59;100.00;99952.31;4951687;28;20073;-66
2022/11/18 08:59:44;;;;;;;7.45;3.85;;;;;;;6.64;100.00;99960.22;4952296;28;20130;-66
2022/11/18 09:02:14;;;;;;;7.07;4.15;;;;;;;6.66;100.00;99955.97;4951991;28;20041;-66
2022/11/18 09:04:39;;;;;;;8.75;4.65;;;;;;;6.70;100.00;99960.41;4948958;28;20019;-66
2022/11/18 09:07:05;;;;;;;7.20;3.80;;;;;;;6.75;100.00;99963.13;4952719;28;20226;-66
2022/11/18 09:09:30;;;;;;;5.47;4.25;;;;;;;6.79;100.00;99971.00;4956839;28;20251;-66
2022/11/18 09:11:55;;;;;;;4.60;3.35;;;;;;;6.83;100.00;99978.03;4951408;28;20070;-66
2022/11/18 09:14:20;;;;;;;7.28;4.45;;;;;;;6.88;100.00;99979.88;4955541;28;20470;-66
2022/11/18 09:16:46;;;;;;;10.00;4.25;;;;;;;6.93;100.00;99978.31;4946802;28;20082;-66
2022/11/18 09:19:13;;;;;;;6.93;4.07;;;;;;;7.01;100.00;99978.56;4948554;28;20428;-66
2022/11/18 09:21:38;;;;;;;9.38;4.10;;;;;;;7.05;100.00;99973.56;4950968;28;20058;-66
2022/11/18 09:24:04;;;;;;;6.43;4.13;;;;;;;7.15;100.00;99979.03;4948203;28;20059;-66
2022/11/18 09:26:30;;;;;;;6.55;3.83;;;;;;;7.21;100.00;99982.66;4947935;28;20030;-66
2022/11/18 09:28:55;;;;;;;6.13;3.78;;;;;;;7.29;100.00;99982.03;4953577;28;20011;-66
2022/11/18 09:31:20;;;;;;;7.35;3.70;;;;;;;7.33;100.00;99984.78;4953368;28;20034;-66
2022/11/18 09:33:46;;;;;;;6.80;3.00;;;;;;;7.39;100.00;99984.09;4949614;28;20424;-66
2022/11/18 09:36:18;;;;;;;7.80;3.10;;;;;;;7.47;100.00;99993.75;4947945;28;20019;-66
2022/11/18 09:38:43;;;;;;;4.70;3.08;;;;;;;7.54;100.00;99995.69;4953878;28;20035;-66
2022/11/18 09:41:08;;;;;;;7.10;2.90;;;;;;;7.59;100.00;100001.84;4951920;28;20823;-66
2022/11/18 09:43:42;;;;;;;6.25;3.03;;;;;;;7.66;100.00;100008.97;4952330;28;20019;-66
2022/11/18 09:46:38;;;;;;;8.05;3.70;;;;;;;7.73;100.00;100011.75;4955747;28;20082;-66
2022/11/18 09:49:13;;;;;;;5.40;3.03;;;;;;;7.79;100.00;100009.31;4959527;28;20490;-66
2022/11/18 09:51:50;;;;;;;6.80;2.78;;;;;;;7.88;100.00;100024.25;4965439;28;20030;-66
2022/11/18 09:54:22;;;;;;;4.90;2.92;;;;;;;7.97;100.00;100027.06;4955429;28;20158;-66
2022/11/18 09:56:50;;;;;;;8.65;3.47;;;;;;;8.06;100.00;100029.03;4959117;28;20034;-66
2022/11/18 09:59:17;;;;;;;5.53;2.20;;;;;;;8.08;100.00;100037.72;4951719;28;20109;-66
2022/11/18 10:01:44;;;;;;;5.28;2.60;;;;;;;8.10;100.00;100042.91;4952227;28;20027;-66
2022/11/18 10:04:14;;;;;;;7.40;3.83;;;;;;;8.13;100.00;100041.28;4951836;28;20070;-66
2022/11/18 10:06:40;;;;;;;7.43;2.95;;;;;;;8.11;100.00;100042.94;4955889;28;20561;-66
2022/11/18 10:09:22;;;;;;;4.90;2.78;;;;;;;8.13;100.00;100046.47;4953255;28;20023;-66
2022/11/18 10:12:00;;;;;;;7.97;3.03;;;;;;;8.17;100.00;100056.06;4962211;28;20653;-67
2022/11/18 10:14:52;;;;;;;7.38;2.80;;;;;;;8.16;100.00;100050.84;4963566;28;20030;-66
2022/11/18 10:17:57;;;;;;;6.85;2.92;;;;;;;8.17;100.00;100053.47;4969087;28;20043;-66
2022/11/18 10:20:28;;;;;;;8.25;3.15;;;;;;;8.22;100.00;100052.72;4953588;28;20163;-66
2022/11/18 10:22:57;;;;;;;3.13;2.83;;;;;;;8.25;100.00;100047.66;4951583;28;20031;-66
2022/11/18 10:25:23;;;;;;;7.03;3.20;;;;;;;8.31;100.00;100055.56;4954344;28;20066;-66
2022/11/18 10:27:49;;;;;;;6.65;3.00;;;;;;;8.33;100.00;100056.47;4952356;28;20035;-66
2022/11/18 10:30:17;;;;;;;4.47;2.55;;;;;;;8.40;100.00;100063.56;4954236;28;20031;-66
2022/11/18 10:32:54;;;;;;;7.95;4.03;;;;;;;8.51;100.00;100057.84;4951772;28;20027;-66
2022/11/18 10:35:32;;;;;;;8.52;3.00;;;;;;;8.59;100.00;100065.84;4956620;28;20028;-66
2022/11/18 10:38:03;;;;;;;8.30;3.17;;;;;;;8.65;100.00;100069.47;4951770;28;20074;-66
2022/11/18 10:40:29;;;;;;;8.30;2.22;;;;;;;8.68;100.00;100066.09;4952667;28;20368;-66
2022/11/18 10:42:55;;;;;;;6.18;2.85;;;;;;;8.65;100.00;100069.47;4956064;28;20499;-66
2022/11/18 10:45:20;;;;;;;6.72;2.45;;;;;;;8.64;100.00;100067.72;4962558;28;20071;-66
2022/11/18 10:48:08;;;;;;;5.80;1.98;;;;;;;8.60;100.00;100073.63;4965866;28;20130;-66
2022/11/18 10:50:41;;;;;;;6.55;2.38;;;;;;;8.59;100.00;100071.00;4951821;28;20488;-65
2022/11/18 10:53:30;;;;;;;3.42;2.03;;;;;;;8.58;100.00;100070.13;4952452;28;20026;-63
2022/11/18 10:56:01;;;;;;;7.20;1.95;;;;;;;8.56;100.00;100074.41;4952697;28;20117;-62
2022/11/18 10:58:33;;;;;;;5.22;2.55;;;;;;;8.59;100.00;100077.06;4952084;28;20089;-65
2022/11/18 11:01:20;;;;;;;6.90;2.00;;;;;;;8.63;100.00;100080.59;4952208;28;20027;-62
2022/11/18 11:04:11;;;;;;;2.97;1.73;;;;;;;8.60;100.00;100089.13;4950241;28;20407;-62
2022/11/18 11:06:37;;;;;;;5.32;3.20;;;;;;;8.60;100.00;100096.88;4949708;28;20401;-62
2022/11/18 11:09:27;;;;;;;8.57;2.50;;;;;;;8.58;100.00;100085.63;4949936;28;20019;-62
2022/11/18 11:11:59;;;;;;;9.75;2.63;;;;;;;8.55;100.00;100092.38;4951632;28;20043;-65
2022/11/18 11:14:33;;;;;;;4.53;2.30;;;;;;;8.54;100.00;100091.50;4949235;28;20131;-65
2022/11/18 11:17:05;;;;;;;6.80;2.13;;;;;;;8.58;100.00;100095.94;4962271;28;20394;-62
2022/11/18 11:19:49;;;;;;;6.25;2.60;;;;;;;8.61;100.00;100096.06;4952891;28;20491;-65
2022/11/18 11:22:15;;;;;;;5.60;2.20;;;;;;;8.63;100.00;100096.94;4949222;28;20078;-65
2022/11/18 11:24:41;;;;;;;5.03;2.38;;;;;;;8.65;100.00;100084.94;4951073;28;20023;-65
2022/11/18 11:27:19;;;;;;;8.35;3.08;;;;;;;8.69;100.00;100092.81;4950708;28;20019;-65
2022/11/18 11:30:06;;;;;;;9.38;2.22;;;;;;;8.74;100.00;100086.91;4961023;28;20027;-63
2022/11/18 11:33:22;;;;;;;8.65;3.30;;;;;;;8.80;100.00;100085.31;4954571;28;20038;-63
2022/11/18 11:35:58;;;;;;;7.28;2.47;;;;;;;8.82;100.00;100094.88;4969672;28;20042;-63
2022/11/18 11:39:20;;;;;;;7.50;2.53;;;;;;;8.84;100.00;100102.69;4951020;28;20030;-63
2022/11/18 11:41:58;;;;;;;7.47;2.60;;;;;;;8.87;100.00;100103.63;4986072;28;20038;-63
2022/11/18 11:44:42;;;;;;;3.15;2.15;;;;;;;8.91;100.00;100109.75;4954048;28;20625;-63
2022/11/18 11:49:58;;;;;;;4.70;2.08;;;;;;;8.88;100.00;100105.41;4951028;28;20450;-63
2022/11/18 11:52:43;;;;;;;8.18;2.45;;;;;;;8.91;100.00;100104.59;4950816;28;20031;-63
2022/11/18 11:55:24;;;;;;;5.85;2.55;;;;;;;8.91;100.00;100104.59;4968972;28;20587;-63